Terminal Aerodrome Forecast
Issued by NWS

Home | Current Version | Previous Version | Text Only | Print | Product List | Glossary On
Versions: 1 2 3 4 5 6 7 8 9 10 11 12 13 14
000
FTUS45 KRIW 201133
TAFCPR
TAF
KCPR 201133Z 2012/2112 24014G20KT P6SM SKC
     FM201500 23024G32KT P6SM SCT070 SCT200
     FM210200 20012G18KT P6SM SCT070 BKN140=

USA.gov is the U.S. government's official web portal to all federal, state and local government web resources and services.